DLH5AH EDDM-EDDN
Flight info
| Callsign | DLH5AH |
|---|---|
| Flight time | 0h 19m |
| Altitude | 22000 |
| Route | INPUD2S INPUD Y102 UPALA UPALA1V |
| Aircraft | A320/M-SDE3FGHIRWY/LB1 |
Departure
| Time | 2026-05-07 17:18 |
|---|---|
| Airport | Munich Airport (EDDM) |
Arrival
| Time | 2026-05-07 17:38 |
|---|---|
| Airport | Nuremberg Airport (EDDN) |
| Time | Latitude | Longitude | Altitude | Speed | Heading |
|---|---|---|---|---|---|
| 2026-05-07 16:54 | 48.35457 | 11.79311 | 1475 ft | 0 kts | 263° |
| 2026-05-07 16:54 | 48.35457 | 11.79312 | 1475 ft | 0 kts | 263° |
| 2026-05-07 17:02 | 48.35459 | 11.79329 | 1472 ft | 3 kts | 263° |
| 2026-05-07 17:02 | 48.35461 | 11.79359 | 1476 ft | 3 kts | 263° |
| 2026-05-07 17:02 | 48.35463 | 11.79389 | 1477 ft | 3 kts | 264° |
| 2026-05-07 17:03 | 48.35464 | 11.79418 | 1477 ft | 3 kts | 283° |
| 2026-05-07 17:03 | 48.35457 | 11.79444 | 1471 ft | 3 kts | 317° |
| 2026-05-07 17:03 | 48.35445 | 11.79456 | 1471 ft | 1 kts | 353° |
| 2026-05-07 17:03 | 48.35432 | 11.79458 | 1481 ft | 2 kts | 353° |
| 2026-05-07 17:04 | 48.35425 | 11.79459 | 1474 ft | 2 kts | 353° |
| 2026-05-07 17:07 | 48.35441 | 11.79463 | 1476 ft | 6 kts | 22° |
| 2026-05-07 17:07 | 48.35503 | 11.79512 | 1479 ft | 14 kts | 4° |
| 2026-05-07 17:07 | 48.35620 | 11.79493 | 1485 ft | 18 kts | 353° |
| 2026-05-07 17:08 | 48.35751 | 11.79470 | 1477 ft | 19 kts | 354° |
| 2026-05-07 17:08 | 48.35880 | 11.79458 | 1485 ft | 18 kts | 14° |
| 2026-05-07 17:08 | 48.35967 | 11.79502 | 1480 ft | 14 kts | 357° |
| 2026-05-07 17:08 | 48.36027 | 11.79490 | 1478 ft | 0 kts | 353° |
| 2026-05-07 17:13 | 48.36045 | 11.79487 | 1485 ft | 6 kts | 353° |
| 2026-05-07 17:14 | 48.36104 | 11.79477 | 1485 ft | 11 kts | 353° |
| 2026-05-07 17:14 | 48.36199 | 11.79476 | 1473 ft | 15 kts | 34° |
| 2026-05-07 17:14 | 48.36228 | 11.79658 | 1485 ft | 23 kts | 83° |
| 2026-05-07 17:14 | 48.36249 | 11.79937 | 1478 ft | 31 kts | 83° |
| 2026-05-07 17:15 | 48.36275 | 11.80265 | 1480 ft | 32 kts | 83° |
| 2026-05-07 17:15 | 48.36301 | 11.80600 | 1485 ft | 32 kts | 84° |
| 2026-05-07 17:15 | 48.36326 | 11.80926 | 1482 ft | 32 kts | 83° |
| 2026-05-07 17:15 | 48.36351 | 11.81255 | 1473 ft | 32 kts | 83° |
| 2026-05-07 17:16 | 48.36377 | 11.81586 | 1476 ft | 32 kts | 83° |
| 2026-05-07 17:16 | 48.36398 | 11.81880 | 1485 ft | 18 kts | 89° |
| 2026-05-07 17:16 | 48.36441 | 11.82005 | 1483 ft | 16 kts | 1° |
| 2026-05-07 17:16 | 48.36542 | 11.81988 | 1481 ft | 10 kts | 353° |
| 2026-05-07 17:17 | 48.36560 | 11.81984 | 1485 ft | 0 kts | 353° |
| 2026-05-07 17:17 | 48.36563 | 11.81984 | 1485 ft | 3 kts | 353° |
| 2026-05-07 17:17 | 48.36626 | 11.81971 | 1475 ft | 16 kts | 351° |
| 2026-05-07 17:17 | 48.36665 | 11.81800 | 1473 ft | 28 kts | 263° |
| 2026-05-07 17:18 | 48.36618 | 11.81186 | 1485 ft | 94 kts | 264° |
| 2026-05-07 17:18 | 48.36521 | 11.79914 | 1479 ft | 149 kts | 264° |
| 2026-05-07 17:18 | 48.36389 | 11.78184 | 1748 ft | 173 kts | 266° |
| 2026-05-07 17:18 | 48.36262 | 11.76380 | 2517 ft | 174 kts | 267° |
| 2026-05-07 17:19 | 48.36131 | 11.74498 | 3036 ft | 192 kts | 266° |
| 2026-05-07 17:19 | 48.35971 | 11.72378 | 3365 ft | 218 kts | 265° |
| 2026-05-07 17:19 | 48.35795 | 11.70061 | 4109 ft | 224 kts | 264° |
| 2026-05-07 17:19 | 48.35759 | 11.67707 | 5002 ft | 227 kts | 284° |
| 2026-05-07 17:20 | 48.36597 | 11.65696 | 5722 ft | 240 kts | 320° |
| 2026-05-07 17:20 | 48.38157 | 11.64580 | 6219 ft | 263 kts | 342° |
| 2026-05-07 17:20 | 48.39988 | 11.64025 | 6837 ft | 273 kts | 348° |
| 2026-05-07 17:20 | 48.41880 | 11.63653 | 7007 ft | 274 kts | 350° |
| 2026-05-07 17:21 | 48.43775 | 11.63304 | 7119 ft | 277 kts | 349° |
| 2026-05-07 17:21 | 48.45686 | 11.62900 | 7985 ft | 279 kts | 348° |
| 2026-05-07 17:21 | 48.47552 | 11.62453 | 8916 ft | 281 kts | 346° |
| 2026-05-07 17:21 | 48.49521 | 11.61925 | 9522 ft | 298 kts | 344° |
| 2026-05-07 17:22 | 48.51596 | 11.60979 | 9848 ft | 320 kts | 338° |
| 2026-05-07 17:22 | 48.53732 | 11.59832 | 10203 ft | 338 kts | 336° |
| 2026-05-07 17:22 | 48.55961 | 11.58594 | 10850 ft | 344 kts | 336° |
| 2026-05-07 17:22 | 48.58225 | 11.57326 | 11440 ft | 348 kts | 336° |
| 2026-05-07 17:23 | 48.60505 | 11.56053 | 12138 ft | 352 kts | 336° |
| 2026-05-07 17:23 | 48.62849 | 11.54747 | 12526 ft | 369 kts | 336° |
| 2026-05-07 17:23 | 48.65328 | 11.53368 | 12666 ft | 389 kts | 337° |
| 2026-05-07 17:23 | 48.67908 | 11.51939 | 12969 ft | 401 kts | 337° |
| 2026-05-07 17:24 | 48.70554 | 11.50484 | 13537 ft | 406 kts | 337° |
| 2026-05-07 17:24 | 48.73230 | 11.49018 | 14111 ft | 410 kts | 338° |
| 2026-05-07 17:24 | 48.75919 | 11.47544 | 14673 ft | 412 kts | 338° |
| 2026-05-07 17:24 | 48.78622 | 11.46057 | 15246 ft | 414 kts | 337° |
| 2026-05-07 17:25 | 48.81344 | 11.44553 | 15805 ft | 417 kts | 337° |
| 2026-05-07 17:25 | 48.84081 | 11.43037 | 16368 ft | 419 kts | 337° |
| 2026-05-07 17:25 | 48.86789 | 11.41533 | 16861 ft | 422 kts | 337° |
| 2026-05-07 17:25 | 48.89619 | 11.40347 | 16531 ft | 424 kts | 350° |
| 2026-05-07 17:26 | 48.92549 | 11.40097 | 16134 ft | 411 kts | 356° |
| 2026-05-07 17:26 | 48.95302 | 11.40508 | 15755 ft | 390 kts | 13° |
| 2026-05-07 17:26 | 48.97795 | 11.42086 | 15338 ft | 387 kts | 24° |
| 2026-05-07 17:26 | 49.00195 | 11.43905 | 14846 ft | 383 kts | 24° |
| 2026-05-07 17:27 | 49.02571 | 11.45713 | 14359 ft | 379 kts | 25° |
| 2026-05-07 17:27 | 49.04918 | 11.47499 | 13911 ft | 375 kts | 25° |
| 2026-05-07 17:27 | 49.07248 | 11.49222 | 13420 ft | 370 kts | 20° |
| 2026-05-07 17:27 | 49.09715 | 11.50105 | 12910 ft | 360 kts | 1° |
| 2026-05-07 17:28 | 49.12189 | 11.50001 | 12449 ft | 353 kts | 354° |
| 2026-05-07 17:28 | 49.14628 | 11.49787 | 11997 ft | 349 kts | 354° |
| 2026-05-07 17:28 | 49.17038 | 11.49552 | 11419 ft | 343 kts | 353° |
| 2026-05-07 17:28 | 49.19350 | 11.49324 | 10812 ft | 325 kts | 353° |
| 2026-05-07 17:29 | 49.21545 | 11.49112 | 10224 ft | 307 kts | 353° |
| 2026-05-07 17:29 | 49.23607 | 11.49019 | 9647 ft | 294 kts | 360° |
| 2026-05-07 17:29 | 49.25606 | 11.49337 | 9149 ft | 285 kts | 2° |
| 2026-05-07 17:29 | 49.27574 | 11.49693 | 8733 ft | 285 kts | 3° |
| 2026-05-07 17:30 | 49.29566 | 11.50083 | 8173 ft | 290 kts | 4° |
| 2026-05-07 17:30 | 49.31564 | 11.50495 | 7786 ft | 289 kts | 4° |
| 2026-05-07 17:30 | 49.33544 | 11.50922 | 7407 ft | 286 kts | 4° |
| 2026-05-07 17:30 | 49.35511 | 11.51261 | 7032 ft | 281 kts | 356° |
| 2026-05-07 17:31 | 49.37412 | 11.50868 | 6716 ft | 272 kts | 345° |
| 2026-05-07 17:31 | 49.39252 | 11.50296 | 6480 ft | 266 kts | 345° |
| 2026-05-07 17:31 | 49.41037 | 11.49756 | 6282 ft | 257 kts | 346° |
| 2026-05-07 17:31 | 49.42743 | 11.49181 | 6142 ft | 243 kts | 336° |
| 2026-05-07 17:32 | 49.44122 | 11.47884 | 6020 ft | 227 kts | 316° |
| 2026-05-07 17:32 | 49.45259 | 11.46274 | 5857 ft | 218 kts | 315° |
| 2026-05-07 17:32 | 49.46142 | 11.44517 | 5688 ft | 207 kts | 288° |
| 2026-05-07 17:32 | 49.46335 | 11.43066 | 5546 ft | 204 kts | 279° |
| 2026-05-07 17:33 | 49.46585 | 11.40220 | 5258 ft | 203 kts | 278° |
| 2026-05-07 17:33 | 49.46791 | 11.38047 | 4921 ft | 207 kts | 280° |
| 2026-05-07 17:33 | 49.47067 | 11.35865 | 4586 ft | 209 kts | 282° |
| 2026-05-07 17:33 | 49.47319 | 11.33637 | 4273 ft | 211 kts | 279° |
| 2026-05-07 17:34 | 49.47528 | 11.31404 | 3970 ft | 211 kts | 279° |
| 2026-05-07 17:34 | 49.47743 | 11.29213 | 3654 ft | 208 kts | 279° |
| 2026-05-07 17:34 | 49.47962 | 11.27009 | 3331 ft | 202 kts | 279° |
| 2026-05-07 17:34 | 49.48173 | 11.24911 | 3070 ft | 194 kts | 279° |
| 2026-05-07 17:35 | 49.48372 | 11.22940 | 2881 ft | 178 kts | 280° |
| 2026-05-07 17:35 | 49.48565 | 11.21170 | 2729 ft | 160 kts | 281° |
| 2026-05-07 17:35 | 49.48705 | 11.19583 | 2556 ft | 141 kts | 279° |
| 2026-05-07 17:35 | 49.48845 | 11.18130 | 2267 ft | 135 kts | 282° |
| 2026-05-07 17:36 | 49.49009 | 11.16704 | 2045 ft | 136 kts | 281° |
| 2026-05-07 17:36 | 49.49160 | 11.15263 | 1854 ft | 136 kts | 280° |
| 2026-05-07 17:36 | 49.49306 | 11.13823 | 1630 ft | 132 kts | 279° |
| 2026-05-07 17:36 | 49.49429 | 11.12417 | 1499 ft | 136 kts | 276° |
| 2026-05-07 17:37 | 49.49551 | 11.10957 | 1345 ft | 135 kts | 279° |
| 2026-05-07 17:37 | 49.49695 | 11.09560 | 1083 ft | 129 kts | 278° |
| 2026-05-07 17:37 | 49.49819 | 11.08318 | 1035 ft | 106 kts | 279° |
| 2026-05-07 17:37 | 49.49891 | 11.07602 | 1023 ft | 71 kts | 278° |
| 2026-05-07 17:38 | 49.49941 | 11.07071 | 1021 ft | 44 kts | 278° |
| 2026-05-07 17:38 | 49.49985 | 11.06643 | 1024 ft | 29 kts | 279° |
| 2026-05-07 17:38 | 49.49968 | 11.06496 | 1024 ft | 12 kts | 224° |
| 2026-05-07 17:38 | 49.49888 | 11.06488 | 1022 ft | 12 kts | 160° |